createdAt,value
2023-05-28T00:02:27.596Z,5.10
2023-05-28T00:07:29.986Z,6.15
2023-05-28T00:12:32.401Z,5.85
2023-05-28T00:17:34.671Z,4.28
2023-05-28T00:22:37.116Z,5.07
2023-05-28T00:27:39.472Z,4.07
2023-05-28T00:32:42.052Z,3.20
2023-05-28T00:37:44.611Z,3.47
2023-05-28T00:42:47.416Z,3.75
2023-05-28T00:47:50.258Z,3.60
2023-05-28T00:52:53.705Z,3.42
2023-05-28T00:57:57.359Z,3.75
2023-05-28T01:03:00.277Z,3.15
2023-05-28T01:08:03.365Z,4.50
2023-05-28T01:13:06.781Z,2.88
2023-05-28T01:18:09.718Z,2.72
2023-05-28T01:23:12.906Z,4.00
2023-05-28T01:28:16.069Z,3.55
2023-05-28T01:33:19.669Z,3.55
2023-05-28T01:38:24.560Z,3.70
2023-05-28T01:43:27.845Z,4.30
2023-05-28T01:48:30.148Z,3.85
2023-05-28T01:53:32.501Z,5.70
2023-05-28T01:58:36.132Z,4.90
2023-05-28T02:03:38.465Z,5.55
2023-05-28T02:08:40.653Z,5.10
2023-05-28T02:13:42.972Z,5.35
2023-05-28T02:18:46.216Z,6.72
2023-05-28T02:23:49.728Z,5.63
2023-05-28T02:28:53.811Z,5.10
2023-05-28T02:33:55.998Z,5.82
2023-05-28T02:38:58.297Z,6.63
2023-05-28T02:44:00.890Z,5.22
2023-05-28T02:49:03.280Z,5.80
2023-05-28T02:54:06.518Z,4.63
2023-05-28T02:59:09.822Z,4.47
2023-05-28T03:04:12.509Z,5.78
2023-05-28T03:09:14.849Z,4.53
2023-05-28T03:14:19.007Z,4.93
2023-05-28T03:19:22.350Z,4.00
2023-05-28T03:24:25.742Z,5.70
2023-05-28T03:29:30.941Z,4.05
2023-05-28T03:34:38.591Z,4.40
2023-05-28T03:39:43.129Z,4.47
2023-05-28T03:44:45.442Z,4.25
2023-05-28T03:49:47.756Z,3.70
2023-05-28T03:54:50.050Z,3.95
2023-05-28T03:59:52.459Z,5.30
2023-05-28T04:04:54.751Z,3.75
2023-05-28T04:09:57.016Z,3.67
2023-05-28T04:15:00.476Z,3.88
2023-05-28T04:20:05.786Z,3.83
2023-05-28T04:25:08.654Z,3.22
2023-05-28T04:30:13.222Z,3.83
2023-05-28T04:35:15.947Z,3.78
2023-05-28T04:40:18.517Z,3.83
2023-05-28T04:45:22.363Z,3.60
2023-05-28T04:50:24.777Z,4.43
2023-05-28T04:55:29.758Z,3.40
2023-05-28T05:00:32.672Z,4.88
2023-05-28T05:05:37.058Z,3.65
2023-05-28T05:10:39.272Z,3.45
2023-05-28T05:15:42.203Z,3.75
2023-05-28T05:20:44.660Z,3.35
2023-05-28T05:25:47.342Z,2.92
2023-05-28T05:30:49.661Z,3.53
2023-05-28T05:35:53.383Z,3.72
2023-05-28T05:41:20.283Z,3.33
2023-05-28T05:46:26.056Z,3.20
2023-05-28T05:51:28.529Z,4.32
2023-05-28T05:56:31.101Z,2.70
2023-05-28T06:01:33.492Z,3.42
2023-05-28T06:06:38.102Z,3.05
2023-05-28T06:12:03.650Z,3.10
2023-05-28T06:17:06.852Z,2.63
2023-05-28T06:22:10.707Z,2.88
2023-05-28T06:27:13.364Z,2.42
2023-05-28T06:32:16.195Z,2.97
2023-05-28T06:37:19.837Z,2.95
2023-05-28T06:42:22.270Z,2.63
2023-05-28T06:47:56.470Z,2.58
2023-05-28T06:52:58.804Z,2.70
2023-05-28T06:58:01.034Z,2.85
2023-05-28T07:03:26.420Z,2.78
2023-05-28T07:08:49.968Z,2.30
2023-05-28T07:13:53.927Z,2.88
2023-05-28T07:18:56.331Z,2.53
2023-05-28T07:24:00.358Z,3.28
2023-05-28T07:29:04.937Z,2.20
2023-05-28T07:34:07.632Z,2.40
2023-05-28T07:39:11.841Z,2.30
2023-05-28T07:44:16.785Z,2.55
2023-05-28T07:49:19.216Z,2.53
2023-05-28T07:54:23.765Z,2.40
2023-05-28T07:59:28.252Z,2.55
2023-05-28T08:04:31.503Z,3.78
2023-05-28T08:09:33.913Z,3.33
2023-05-28T08:14:36.317Z,2.53
2023-05-28T08:19:49.491Z,2.60
2023-05-28T08:25:34.457Z,2.88
2023-05-28T08:30:42.650Z,2.03
2023-05-28T08:36:01.606Z,3.58
2023-05-28T08:41:04.458Z,2.60
2023-05-28T08:46:07.305Z,2.22
2023-05-28T08:51:37.834Z,2.42
2023-05-28T08:56:41.672Z,3.63
2023-05-28T09:01:45.052Z,3.78
2023-05-28T09:06:54.455Z,2.40
2023-05-28T09:12:22.786Z,2.35
2023-05-28T09:17:33.995Z,2.70
2023-05-28T09:22:39.082Z,3.15
2023-05-28T09:27:52.072Z,3.22
2023-05-28T09:32:58.979Z,2.63
2023-05-28T09:38:06.188Z,2.40
2023-05-28T09:43:08.685Z,3.08
2023-05-28T09:48:11.259Z,2.42
2023-05-28T09:53:14.156Z,2.65
2023-05-28T09:58:17.419Z,3.22
2023-05-28T10:03:24.193Z,2.20
2023-05-28T10:08:27.256Z,2.75
2023-05-28T10:13:29.573Z,2.85
2023-05-28T10:18:32.142Z,3.92
2023-05-28T10:23:34.500Z,2.70
2023-05-28T10:28:36.774Z,2.95
2023-05-28T10:33:40.957Z,2.95
2023-05-28T10:38:47.350Z,3.30
2023-05-28T10:43:50.129Z,2.35
2023-05-28T10:49:14.290Z,2.63
2023-05-28T10:54:22.516Z,2.78
2023-05-28T10:59:43.542Z,2.72
2023-05-28T11:04:45.921Z,3.05
2023-05-28T11:09:49.275Z,2.40
2023-05-28T11:14:51.609Z,2.67
2023-05-28T11:19:55.207Z,3.70
2023-05-28T11:25:02.277Z,3.20
2023-05-28T11:30:12.775Z,2.63
2023-05-28T11:35:16.627Z,2.92
2023-05-28T11:40:19.213Z,4.00
2023-05-28T11:45:21.832Z,2.60
2023-05-28T11:50:24.206Z,2.13
2023-05-28T11:55:26.610Z,2.00
2023-05-28T12:00:37.313Z,2.47
2023-05-28T12:05:39.830Z,1.92
2023-05-28T12:10:42.180Z,4.35
2023-05-28T12:15:45.021Z,2.80
2023-05-28T12:20:47.368Z,2.15
2023-05-28T12:25:50.356Z,2.55
2023-05-28T12:30:54.731Z,2.65
2023-05-28T12:35:57.821Z,2.53
2023-05-28T12:41:00.764Z,3.67
2023-05-28T12:46:03.073Z,2.80
2023-05-28T12:51:05.332Z,2.42
2023-05-28T12:56:07.617Z,2.28
2023-05-28T13:01:09.966Z,2.92
2023-05-28T13:06:13.133Z,2.50
2023-05-28T13:11:15.300Z,2.90
2023-05-28T13:16:19.303Z,2.97
2023-05-28T13:21:21.688Z,2.58
2023-05-28T13:26:24.293Z,2.50
2023-05-28T13:31:26.594Z,2.58
2023-05-28T13:36:29.112Z,2.75
2023-05-28T13:41:31.769Z,3.15
2023-05-28T13:46:34.007Z,2.55
2023-05-28T13:51:36.531Z,2.78
2023-05-28T13:56:38.816Z,2.90
2023-05-28T14:01:41.155Z,2.70
2023-05-28T14:06:43.511Z,2.85
2023-05-28T14:12:15.872Z,3.10
2023-05-28T14:17:08.228Z,2.45
2023-05-28T14:22:10.673Z,2.45
2023-05-28T14:27:12.923Z,3.63
2023-05-28T14:32:15.898Z,3.15
2023-05-28T14:37:20.116Z,3.47
2023-05-28T14:42:22.376Z,10.10
2023-05-28T14:47:24.618Z,3.80
2023-05-28T14:52:31.902Z,4.10
2023-05-28T14:57:36.589Z,3.08
2023-05-28T15:02:39.155Z,2.50
2023-05-28T15:07:41.816Z,3.53
2023-05-28T15:12:44.089Z,3.30
2023-05-28T15:17:46.514Z,3.25
2023-05-28T15:22:48.751Z,3.58
2023-05-28T15:27:54.382Z,4.43
2023-05-28T15:32:59.512Z,3.63
2023-05-28T15:38:01.948Z,3.50
2023-05-28T15:43:07.319Z,4.57
2023-05-28T15:48:09.647Z,3.03
2023-05-28T15:53:11.917Z,4.15
2023-05-28T15:58:14.144Z,3.05
2023-05-28T16:03:16.585Z,3.30
2023-05-28T16:08:18.918Z,3.88
2023-05-28T16:13:24.828Z,3.58
2023-05-28T16:18:29.239Z,3.30
2023-05-28T16:23:34.576Z,4.15
2023-05-28T16:28:36.833Z,4.07
2023-05-28T16:33:39.094Z,6.07
2023-05-28T16:38:44.007Z,4.60
2023-05-28T16:43:47.106Z,5.32
2023-05-28T16:48:50.052Z,6.22
2023-05-28T16:53:52.289Z,5.65
2023-05-28T16:58:56.244Z,4.53
2023-05-28T17:03:58.728Z,3.50
2023-05-28T17:09:01.560Z,3.60
2023-05-28T17:14:03.784Z,3.85
2023-05-28T17:19:06.007Z,4.75
2023-05-28T17:24:08.225Z,3.95
2023-05-28T17:29:10.587Z,2.92
2023-05-28T17:34:12.884Z,3.17
2023-05-28T17:39:15.149Z,3.08
2023-05-28T17:44:18.808Z,3.05
2023-05-28T17:49:22.195Z,4.03
2023-05-28T17:54:25.203Z,3.83
2023-05-28T17:59:27.479Z,4.97
2023-05-28T18:04:29.786Z,3.92
2023-05-28T18:09:31.998Z,3.05
2023-05-28T18:14:34.148Z,3.83
2023-05-28T18:19:36.405Z,4.97
2023-05-28T18:24:38.628Z,6.38
2023-05-28T18:29:41.148Z,7.80
2023-05-28T18:34:43.385Z,6.38
2023-05-28T18:39:47.818Z,5.53
2023-05-28T18:44:50.018Z,7.43
2023-05-28T18:49:52.368Z,8.32
2023-05-28T18:54:54.886Z,6.68
2023-05-28T18:59:58.386Z,6.47
2023-05-28T19:05:00.665Z,8.15
2023-05-28T19:10:03.100Z,7.70
2023-05-28T19:15:07.302Z,7.95
2023-05-28T19:20:10.260Z,6.45
2023-05-28T19:25:12.651Z,6.90
2023-05-28T19:30:14.932Z,5.60
2023-05-28T19:35:17.273Z,6.07
2023-05-28T19:40:19.508Z,4.75
2023-05-28T19:45:22.911Z,4.75
2023-05-28T19:50:25.073Z,3.58
2023-05-28T19:55:27.208Z,3.38
2023-05-28T20:00:29.900Z,3.40
2023-05-28T20:05:32.126Z,3.75
2023-05-28T20:10:34.381Z,4.05
2023-05-28T20:15:39.103Z,5.93
2023-05-28T20:20:41.597Z,4.72
2023-05-28T20:25:43.814Z,5.20
2023-05-28T20:30:46.086Z,4.18
2023-05-28T20:35:49.833Z,4.15
2023-05-28T20:40:55.429Z,4.70
2023-05-28T20:45:58.422Z,4.18
2023-05-28T20:51:00.778Z,4.43
2023-05-28T20:56:03.113Z,4.10
2023-05-28T21:01:05.666Z,3.38
2023-05-28T21:06:08.794Z,4.50
2023-05-28T21:11:11.079Z,3.35
2023-05-28T21:16:13.447Z,3.95
2023-05-28T21:21:16.792Z,4.03
2023-05-28T21:26:19.144Z,3.22
2023-05-28T21:31:21.426Z,3.35
2023-05-28T21:36:23.653Z,3.88
2023-05-28T21:41:26.010Z,3.10
2023-05-28T21:46:28.300Z,2.60
2023-05-28T21:51:31.765Z,3.78
2023-05-28T21:56:33.995Z,4.05
2023-05-28T22:01:36.677Z,3.55
2023-05-28T22:06:39.541Z,3.80
2023-05-28T22:11:43.080Z,2.83
2023-05-28T22:16:45.549Z,3.00
2023-05-28T22:21:47.859Z,3.08
2023-05-28T22:26:49.973Z,3.30
2023-05-28T22:31:52.220Z,3.20
2023-05-28T22:36:54.998Z,4.32
2023-05-28T22:41:57.443Z,3.75
2023-05-28T22:46:59.778Z,3.75
2023-05-28T22:52:02.027Z,4.65
2023-05-28T22:57:05.119Z,4.72
2023-05-28T23:02:07.679Z,4.07
2023-05-28T23:07:10.120Z,4.07
2023-05-28T23:12:13.452Z,3.97
2023-05-28T23:17:18.494Z,4.13
2023-05-28T23:22:20.941Z,4.47
2023-05-28T23:27:23.194Z,3.95
2023-05-28T23:32:25.421Z,3.47
2023-05-28T23:37:27.584Z,3.33
2023-05-28T23:42:30.599Z,3.38
2023-05-28T23:47:34.088Z,3.42
2023-05-28T23:52:36.288Z,3.58
2023-05-28T23:57:38.487Z,3.70
